createdAt,value
2022-08-18T00:01:59.553Z,23.46
2022-08-18T00:04:35.640Z,23.41
2022-08-18T00:07:03.734Z,23.36
2022-08-18T00:09:32.532Z,23.31
2022-08-18T00:12:02.936Z,23.17
2022-08-18T00:14:29.456Z,23.17
2022-08-18T00:16:56.025Z,23.17
2022-08-18T00:19:45.485Z,23.14
2022-08-18T00:22:14.867Z,23.17
2022-08-18T00:24:48.393Z,23.09
2022-08-18T00:27:18.748Z,23.04
2022-08-18T00:29:45.382Z,23.00
2022-08-18T00:32:17.485Z,22.93
2022-08-18T00:34:44.531Z,22.95
2022-08-18T00:37:10.985Z,22.96
2022-08-18T00:39:38.849Z,22.88
2022-08-18T00:42:31.282Z,22.79
2022-08-18T00:45:01.107Z,22.77
2022-08-18T00:47:37.086Z,22.83
2022-08-18T00:50:15.169Z,22.77
2022-08-18T00:52:44.091Z,22.76
2022-08-18T00:55:11.867Z,22.69
2022-08-18T00:57:38.903Z,22.71
2022-08-18T01:00:11.542Z,22.74
2022-08-18T01:06:28.641Z,22.68
2022-08-18T01:08:55.968Z,22.60
2022-08-18T01:11:22.644Z,22.55
2022-08-18T01:13:49.330Z,22.47
2022-08-18T01:16:34.672Z,22.52
2022-08-18T01:19:19.745Z,22.43
2022-08-18T01:21:53.339Z,22.38
2022-08-18T01:24:49.627Z,22.43
2022-08-18T01:27:18.381Z,22.33
2022-08-18T01:29:47.069Z,22.34
2022-08-18T01:32:19.725Z,22.44
2022-08-18T01:34:51.238Z,22.48
2022-08-18T01:37:21.813Z,22.44
2022-08-18T01:41:23.806Z,22.55
2022-08-18T01:42:36.190Z,22.63
2022-08-18T01:45:04.671Z,22.75
2022-08-18T01:47:33.029Z,22.75
2022-08-18T01:50:15.079Z,22.74
2022-08-18T01:52:41.520Z,22.74
2022-08-18T01:55:08.286Z,22.83
2022-08-18T01:57:43.134Z,22.83
2022-08-18T02:00:12.612Z,22.72
2022-08-18T02:02:39.862Z,22.78
2022-08-18T02:05:11.365Z,22.81
2022-08-18T02:07:38.226Z,22.63
2022-08-18T02:10:11.842Z,22.66
2022-08-18T02:12:40.517Z,22.57
2022-08-18T02:15:07.982Z,22.58
2022-08-18T02:17:42.947Z,22.50
2022-08-18T02:20:12.205Z,22.58
2022-08-18T02:22:40.662Z,22.63
2022-08-18T02:25:08.098Z,22.58
2022-08-18T02:27:35.225Z,22.59
2022-08-18T02:30:04.229Z,22.45
2022-08-18T02:32:32.063Z,22.52
2022-08-18T02:34:58.582Z,22.65
2022-08-18T02:37:25.022Z,22.59
2022-08-18T02:39:51.555Z,22.60
2022-08-18T02:42:18.239Z,22.59
2022-08-18T02:44:45.054Z,22.76
2022-08-18T02:47:11.744Z,22.84
2022-08-18T02:49:38.177Z,22.80
2022-08-18T02:52:04.702Z,22.79
2022-08-18T02:54:31.138Z,22.72
2022-08-18T02:56:57.853Z,22.84
2022-08-18T02:59:27.451Z,22.85
2022-08-18T03:01:55.917Z,22.92
2022-08-18T03:04:29.546Z,22.94
2022-08-18T03:06:59.390Z,22.93
2022-08-18T03:09:26.169Z,22.98
2022-08-18T03:11:53.481Z,22.96
2022-08-18T03:14:20.402Z,22.95
2022-08-18T03:16:54.698Z,22.83
2022-08-18T03:19:26.138Z,22.91
2022-08-18T03:21:53.217Z,22.98
2022-08-18T03:24:22.385Z,22.96
2022-08-18T03:26:51.022Z,22.98
2022-08-18T03:29:17.481Z,23.10
2022-08-18T03:31:44.513Z,23.11
2022-08-18T03:34:11.851Z,22.97
2022-08-18T03:36:38.500Z,23.03
2022-08-18T03:39:07.091Z,22.95
2022-08-18T03:41:57.655Z,22.88
2022-08-18T03:44:21.839Z,22.76
2022-08-18T03:46:49.002Z,22.85
2022-08-18T03:49:15.469Z,22.83
2022-08-18T03:51:46.562Z,22.74
2022-08-18T03:54:13.839Z,22.70
2022-08-18T03:56:41.439Z,22.59
2022-08-18T03:59:11.371Z,22.60
2022-08-18T04:01:41.048Z,22.48
2022-08-18T04:04:10.190Z,22.49
2022-08-18T04:06:40.835Z,22.54
2022-08-18T04:09:09.416Z,22.72
2022-08-18T04:11:37.551Z,22.71
2022-08-18T04:14:05.404Z,22.98
2022-08-18T04:16:33.185Z,22.78
2022-08-18T04:19:04.013Z,22.87
2022-08-18T04:21:32.855Z,22.91
2022-08-18T04:24:04.914Z,22.97
2022-08-18T04:26:32.776Z,22.97
2022-08-18T04:29:01.167Z,22.99
2022-08-18T04:31:28.003Z,23.02
2022-08-18T04:33:55.299Z,23.10
2022-08-18T04:36:22.029Z,23.02
2022-08-18T04:38:48.549Z,23.13
2022-08-18T04:41:14.987Z,22.99
2022-08-18T04:43:42.121Z,23.06
2022-08-18T04:46:08.892Z,23.17
2022-08-18T04:48:39.969Z,23.27
2022-08-18T04:51:12.549Z,23.19
2022-08-18T04:54:00.828Z,23.31
2022-08-18T04:56:38.795Z,23.27
2022-08-18T04:59:11.390Z,23.25
2022-08-18T05:01:45.231Z,23.25
2022-08-18T05:04:13.599Z,23.12
2022-08-18T05:06:40.712Z,23.25
2022-08-18T05:09:08.927Z,23.10
2022-08-18T05:11:36.596Z,23.14
2022-08-18T05:14:06.159Z,23.18
2022-08-18T05:16:35.912Z,23.15
2022-08-18T05:19:04.549Z,23.12
2022-08-18T05:21:37.347Z,23.16
2022-08-18T05:24:05.629Z,23.15
2022-08-18T05:26:32.316Z,23.34
2022-08-18T05:29:04.150Z,23.39
2022-08-18T05:31:45.668Z,23.51
2022-08-18T05:34:12.110Z,23.40
2022-08-18T05:36:51.110Z,23.52
2022-08-18T05:39:26.297Z,23.41
2022-08-18T05:42:05.997Z,23.43
2022-08-18T05:44:37.666Z,23.42
2022-08-18T05:47:07.605Z,23.37
2022-08-18T05:49:35.534Z,23.43
2022-08-18T05:52:07.755Z,23.47
2022-08-18T05:54:58.446Z,23.48
2022-08-18T05:57:28.079Z,23.43
2022-08-18T05:59:54.931Z,23.52
2022-08-18T06:02:33.057Z,23.75
2022-08-18T06:05:03.812Z,23.90
2022-08-18T06:07:35.540Z,24.04
2022-08-18T06:10:02.747Z,24.25
2022-08-18T06:12:41.130Z,24.36
2022-08-18T06:15:18.122Z,24.41
2022-08-18T06:17:47.567Z,24.61
2022-08-18T06:20:45.930Z,24.60
2022-08-18T06:23:40.450Z,24.64
2022-08-18T06:26:24.229Z,24.63
2022-08-18T06:29:00.873Z,24.64
2022-08-18T06:31:31.144Z,24.63
2022-08-18T06:34:15.859Z,24.71
2022-08-18T06:36:53.318Z,24.66
2022-08-18T06:39:36.446Z,24.63
2022-08-18T06:42:05.894Z,24.73
2022-08-18T06:44:36.752Z,24.83
2022-08-18T06:47:21.399Z,25.02
2022-08-18T06:49:56.106Z,25.24
2022-08-18T06:52:32.053Z,25.49
2022-08-18T06:55:02.823Z,25.80
2022-08-18T06:57:34.466Z,26.06
2022-08-18T07:00:22.173Z,26.22
2022-08-18T07:03:01.389Z,26.40
2022-08-18T07:05:30.712Z,26.77
2022-08-18T07:08:12.978Z,26.94
2022-08-18T07:10:49.034Z,26.83
2022-08-18T07:13:18.941Z,26.66
2022-08-18T07:15:45.747Z,26.49
2022-08-18T07:18:13.229Z,26.31
2022-08-18T07:20:46.311Z,26.19
2022-08-18T07:23:27.508Z,26.04
2022-08-18T07:26:15.191Z,25.90
2022-08-18T07:28:44.954Z,25.78
2022-08-18T07:31:20.402Z,25.79
2022-08-18T07:33:52.413Z,25.62
2022-08-18T07:36:21.553Z,25.50
2022-08-18T07:38:58.817Z,25.64
2022-08-18T07:41:43.052Z,25.83
2022-08-18T07:44:21.790Z,25.92
2022-08-18T07:47:00.664Z,26.11
2022-08-18T07:49:32.803Z,25.92
2022-08-18T07:52:13.084Z,25.93
2022-08-18T07:55:01.950Z,26.14
2022-08-18T07:58:03.613Z,25.90
2022-08-18T08:00:57.640Z,26.23
2022-08-18T08:03:32.142Z,25.90
2022-08-18T08:06:09.940Z,26.10
2022-08-18T08:08:44.745Z,26.08
2022-08-18T08:11:44.601Z,26.35
2022-08-18T08:14:26.131Z,26.44
2022-08-18T08:17:26.745Z,26.56
2022-08-18T08:20:09.350Z,26.62
2022-08-18T08:22:58.263Z,26.52
2022-08-18T08:25:56.657Z,26.53
2022-08-18T08:28:43.039Z,26.63
2022-08-18T08:31:38.418Z,26.50
2022-08-18T08:34:43.017Z,26.67
2022-08-18T08:37:15.823Z,26.73
2022-08-18T08:39:50.924Z,26.72
2022-08-18T08:42:30.244Z,26.60
2022-08-18T08:45:09.813Z,26.60
2022-08-18T08:48:18.245Z,26.54
2022-08-18T08:50:57.317Z,26.47
2022-08-18T08:53:44.664Z,26.54
2022-08-18T08:56:17.031Z,26.83
2022-08-18T08:58:50.371Z,27.06
2022-08-18T09:01:27.071Z,27.20
2022-08-18T09:04:16.601Z,27.02
2022-08-18T09:07:12.820Z,26.89
2022-08-18T09:09:58.006Z,27.16
2022-08-18T09:12:36.403Z,27.45
2022-08-18T09:15:08.754Z,27.87
2022-08-18T09:17:50.827Z,27.83
2022-08-18T09:20:36.631Z,27.63
2022-08-18T09:23:28.340Z,27.42
2022-08-18T09:26:00.242Z,27.49
2022-08-18T09:28:29.687Z,27.59
2022-08-18T09:31:02.367Z,27.69
2022-08-18T09:33:40.910Z,27.69
2022-08-18T09:39:54.792Z,28.18
2022-08-18T09:42:32.828Z,28.35
2022-08-18T09:46:04.359Z,28.48
2022-08-18T09:51:39.972Z,28.83
2022-08-18T09:54:13.482Z,29.25
2022-08-18T09:57:09.209Z,29.25
2022-08-18T09:59:36.504Z,29.48
2022-08-18T10:02:17.727Z,29.57
2022-08-18T10:04:51.316Z,29.55
2022-08-18T10:07:43.424Z,29.80
2022-08-18T10:11:00.373Z,29.92
2022-08-18T10:13:25.167Z,29.90
2022-08-18T10:16:15.880Z,30.02
2022-08-18T10:19:01.682Z,30.31
2022-08-18T10:21:31.504Z,29.61
2022-08-18T10:24:35.129Z,29.13
2022-08-18T10:27:04.597Z,29.19
2022-08-18T10:29:31.937Z,29.51
2022-08-18T10:32:01.383Z,30.14
2022-08-18T10:37:43.420Z,31.28
2022-08-18T10:40:10.037Z,31.69
2022-08-18T10:42:49.512Z,31.71
2022-08-18T10:45:22.103Z,31.36
2022-08-18T10:51:21.569Z,30.87
2022-08-18T10:54:03.178Z,30.43
2022-08-18T10:56:43.784Z,30.53
2022-08-18T10:59:47.773Z,30.66
2022-08-18T11:02:23.456Z,30.77
2022-08-18T11:04:58.910Z,30.77
2022-08-18T11:07:29.258Z,31.24
2022-08-18T11:10:27.960Z,31.33
2022-08-18T11:15:58.949Z,30.55
2022-08-18T11:18:42.940Z,30.40
2022-08-18T11:21:32.049Z,30.93
2022-08-18T11:24:02.491Z,31.38
2022-08-18T11:26:34.934Z,31.85
2022-08-18T11:29:16.561Z,32.04
2022-08-18T11:31:43.267Z,31.86
2022-08-18T11:34:24.887Z,32.06
2022-08-18T11:37:26.962Z,31.95
2022-08-18T11:39:56.488Z,30.76
2022-08-18T11:42:35.487Z,29.40
2022-08-18T11:45:19.903Z,29.13
2022-08-18T11:48:09.459Z,29.21
2022-08-18T11:50:56.918Z,29.06
2022-08-18T11:53:32.428Z,28.61
2022-08-18T11:56:14.324Z,28.84
2022-08-18T11:58:50.465Z,28.89
2022-08-18T12:01:42.017Z,28.76
2022-08-18T12:04:37.675Z,29.00
2022-08-18T12:07:10.096Z,28.90
2022-08-18T12:10:16.537Z,28.64
2022-08-18T12:12:49.460Z,28.99
2022-08-18T12:15:23.933Z,28.92
2022-08-18T12:17:52.956Z,29.01
2022-08-18T12:20:20.671Z,28.93
2022-08-18T12:22:49.238Z,28.71
2022-08-18T12:25:25.024Z,28.67
2022-08-18T12:27:55.058Z,28.77
2022-08-18T12:30:21.583Z,28.85
2022-08-18T12:32:50.890Z,28.52
2022-08-18T12:35:22.942Z,28.66
2022-08-18T12:40:38.066Z,29.49
2022-08-18T12:43:05.727Z,29.25
2022-08-18T12:45:32.717Z,29.23
2022-08-18T12:48:04.407Z,29.49
2022-08-18T12:50:36.201Z,29.26
2022-08-18T12:53:05.942Z,29.47
2022-08-18T12:55:35.642Z,29.44
2022-08-18T12:58:05.255Z,29.69
2022-08-18T13:00:31.954Z,30.10
2022-08-18T13:02:59.247Z,30.24
2022-08-18T13:05:29.820Z,30.23
2022-08-18T13:07:58.724Z,30.14
2022-08-18T13:10:43.226Z,30.17
2022-08-18T13:13:12.294Z,30.25
2022-08-18T13:15:38.914Z,30.63
2022-08-18T13:18:14.190Z,30.66
2022-08-18T13:20:42.275Z,30.63
2022-08-18T13:23:12.002Z,30.08
2022-08-18T13:25:39.752Z,28.93
2022-08-18T13:28:06.782Z,29.32
2022-08-18T13:30:33.379Z,28.97
2022-08-18T13:33:05.968Z,28.48
2022-08-18T13:35:54.249Z,28.01
2022-08-18T13:38:27.492Z,28.36
2022-08-18T13:40:57.637Z,28.88
2022-08-18T13:43:31.063Z,29.21
2022-08-18T13:45:58.217Z,29.33
2022-08-18T13:48:25.649Z,29.49
2022-08-18T13:50:58.178Z,29.13
2022-08-18T13:53:27.620Z,29.18
2022-08-18T13:55:54.769Z,29.51
2022-08-18T13:58:21.403Z,29.25
2022-08-18T14:00:53.854Z,28.77
2022-08-18T14:03:42.901Z,28.62
2022-08-18T14:06:11.570Z,28.60
2022-08-18T14:08:39.611Z,29.18
2022-08-18T14:11:06.867Z,29.43
2022-08-18T14:13:38.319Z,29.26
2022-08-18T14:16:10.967Z,29.09
2022-08-18T14:18:42.743Z,29.05
2022-08-18T14:21:44.581Z,28.95
2022-08-18T14:24:30.733Z,28.67
2022-08-18T14:27:03.199Z,28.33
2022-08-18T14:29:46.391Z,28.13
2022-08-18T14:32:18.208Z,28.45
2022-08-18T14:35:01.072Z,28.82
2022-08-18T14:37:46.514Z,29.16
2022-08-18T14:40:15.713Z,29.00
2022-08-18T14:42:54.336Z,28.24
2022-08-18T14:45:31.564Z,28.67
2022-08-18T14:48:06.758Z,28.55
2022-08-18T14:50:37.792Z,28.15
2022-08-18T14:53:05.436Z,28.28
2022-08-18T14:55:32.312Z,27.85
2022-08-18T14:58:00.805Z,27.94
2022-08-18T15:00:29.483Z,28.33
2022-08-18T15:02:59.543Z,28.54
2022-08-18T15:05:30.776Z,28.50
2022-08-18T15:07:58.805Z,28.63
2022-08-18T15:10:27.928Z,28.79
2022-08-18T15:12:55.347Z,28.87
2022-08-18T15:15:22.524Z,29.19
2022-08-18T15:17:52.823Z,29.31
2022-08-18T15:20:24.045Z,28.61
2022-08-18T15:23:14.145Z,28.41
2022-08-18T15:25:44.964Z,28.55
2022-08-18T15:28:19.929Z,27.93
2022-08-18T15:30:51.351Z,27.95
2022-08-18T15:33:23.538Z,28.01
2022-08-18T15:35:54.044Z,27.90
2022-08-18T15:38:22.382Z,27.32
2022-08-18T15:40:57.274Z,27.54
2022-08-18T15:43:25.373Z,27.53
2022-08-18T15:45:57.807Z,27.71
2022-08-18T15:48:26.476Z,27.89
2022-08-18T15:50:53.376Z,27.70
2022-08-18T15:53:22.609Z,28.07
2022-08-18T15:55:50.076Z,28.30
2022-08-18T15:58:22.032Z,27.96
2022-08-18T16:00:50.629Z,28.48
2022-08-18T16:03:17.584Z,28.33
2022-08-18T16:05:53.182Z,28.48
2022-08-18T16:08:22.007Z,28.06
2022-08-18T16:10:48.783Z,26.32
2022-08-18T16:13:15.244Z,25.77
2022-08-18T16:15:46.596Z,25.71
2022-08-18T16:18:14.432Z,25.65
2022-08-18T16:20:41.578Z,25.60
2022-08-18T16:23:08.733Z,25.61
2022-08-18T16:25:38.113Z,25.49
2022-08-18T16:28:05.072Z,25.51
2022-08-18T16:30:33.324Z,25.91
2022-08-18T16:33:03.505Z,25.97
2022-08-18T16:35:31.170Z,25.42
2022-08-18T16:38:05.947Z,25.47
2022-08-18T16:40:32.510Z,25.26
2022-08-18T16:43:00.538Z,25.64
2022-08-18T16:45:28.233Z,25.35
2022-08-18T16:47:56.133Z,25.41
2022-08-18T16:50:24.892Z,25.29
2022-08-18T16:52:51.589Z,24.99
2022-08-18T16:55:21.001Z,25.19
2022-08-18T16:58:06.096Z,24.97
2022-08-18T17:00:55.240Z,24.93
2022-08-18T17:03:42.715Z,24.94
2022-08-18T17:06:12.715Z,25.09
2022-08-18T17:08:40.305Z,24.96
2022-08-18T17:11:09.666Z,24.75
2022-08-18T17:13:37.303Z,24.71
2022-08-18T17:16:04.235Z,24.81
2022-08-18T17:18:30.837Z,24.94
2022-08-18T17:21:02.185Z,25.01
2022-08-18T17:23:28.675Z,24.72
2022-08-18T17:25:55.892Z,24.73
2022-08-18T17:28:26.401Z,24.51
2022-08-18T17:30:53.208Z,24.57
2022-08-18T17:33:24.539Z,24.54
2022-08-18T17:35:54.082Z,24.50
2022-08-18T17:38:36.190Z,24.44
2022-08-18T17:41:03.523Z,24.41
2022-08-18T17:43:35.655Z,24.41
2022-08-18T17:46:06.848Z,24.28
2022-08-18T17:48:33.200Z,24.38
2022-08-18T17:51:27.348Z,24.37
2022-08-18T17:53:53.958Z,24.14
2022-08-18T17:56:35.145Z,24.31
2022-08-18T17:59:45.971Z,24.41
2022-08-18T18:02:28.598Z,24.08
2022-08-18T18:05:07.372Z,23.84
2022-08-18T18:07:52.194Z,23.52
2022-08-18T18:10:37.697Z,23.51
2022-08-18T18:13:23.771Z,23.37
2022-08-18T18:15:53.690Z,23.34
2022-08-18T18:18:42.951Z,23.29
2022-08-18T18:21:15.371Z,23.19
2022-08-18T18:23:50.592Z,23.30
2022-08-18T18:26:19.963Z,23.17
2022-08-18T18:28:46.610Z,23.11
2022-08-18T18:31:33.267Z,23.22
2022-08-18T18:34:03.926Z,23.17
2022-08-18T18:36:44.065Z,22.96
2022-08-18T18:39:14.708Z,22.96
2022-08-18T18:41:41.166Z,22.86
2022-08-18T18:44:13.359Z,22.93
2022-08-18T18:46:51.054Z,22.96
2022-08-18T18:49:26.543Z,22.81
2022-08-18T18:52:11.608Z,22.91
2022-08-18T18:55:06.406Z,22.99
2022-08-18T18:58:07.894Z,22.84
2022-08-18T19:00:53.446Z,22.92
2022-08-18T19:03:33.669Z,22.81
2022-08-18T19:06:18.984Z,22.79
2022-08-18T19:08:59.536Z,22.67
2022-08-18T19:11:53.637Z,22.46
2022-08-18T19:14:26.432Z,22.58
2022-08-18T19:16:57.080Z,22.50
2022-08-18T19:19:36.947Z,22.48
2022-08-18T19:22:18.980Z,22.32
2022-08-18T19:24:52.964Z,22.44
2022-08-18T19:27:25.648Z,22.30
2022-08-18T19:29:55.552Z,22.35
2022-08-18T19:32:27.598Z,22.22
2022-08-18T19:34:55.887Z,22.15
2022-08-18T19:37:46.660Z,22.17
2022-08-18T19:40:19.969Z,22.20
2022-08-18T19:43:29.805Z,22.28
2022-08-18T19:46:05.674Z,22.21
2022-08-18T19:48:42.045Z,22.32
2022-08-18T19:51:15.601Z,22.33
2022-08-18T19:54:04.495Z,22.21
2022-08-18T19:56:57.368Z,22.11
2022-08-18T19:59:35.056Z,22.01
2022-08-18T20:02:26.567Z,22.11
2022-08-18T20:05:21.131Z,22.24
2022-08-18T20:07:54.808Z,22.13
2022-08-18T20:11:09.163Z,22.20
2022-08-18T20:13:42.891Z,22.01
2022-08-18T20:16:25.062Z,21.79
2022-08-18T20:19:01.418Z,21.81
2022-08-18T20:21:45.645Z,21.98
2022-08-18T20:24:38.324Z,21.92
2022-08-18T20:27:27.212Z,22.00
2022-08-18T20:30:22.251Z,21.84
2022-08-18T20:33:24.138Z,21.86
2022-08-18T20:36:00.224Z,21.77
2022-08-18T20:38:40.661Z,21.77
2022-08-18T20:41:27.590Z,21.74
2022-08-18T20:43:58.444Z,21.80
2022-08-18T20:46:46.246Z,21.93
2022-08-18T20:49:40.588Z,21.78
2022-08-18T20:52:46.056Z,21.71
2022-08-18T20:55:23.730Z,21.54
2022-08-18T20:57:55.370Z,21.55
2022-08-18T21:00:27.366Z,21.57
2022-08-18T21:02:59.349Z,21.57
2022-08-18T21:05:28.726Z,21.61
2022-08-18T21:08:03.296Z,21.63
2022-08-18T21:10:31.082Z,21.53
2022-08-18T21:13:01.281Z,21.52
2022-08-18T21:15:30.747Z,21.52
2022-08-18T21:18:03.262Z,21.49
2022-08-18T21:20:31.432Z,21.57
2022-08-18T21:23:07.605Z,21.58
2022-08-18T21:25:34.431Z,21.34
2022-08-18T21:28:02.303Z,21.46
2022-08-18T21:30:28.931Z,21.54
2022-08-18T21:32:55.419Z,21.55
2022-08-18T21:35:33.796Z,21.39
2022-08-18T21:38:12.284Z,21.39
2022-08-18T21:40:43.480Z,21.36
2022-08-18T21:43:11.231Z,21.40
2022-08-18T21:45:47.484Z,21.52
2022-08-18T21:48:14.466Z,21.50
2022-08-18T21:50:49.641Z,21.51
2022-08-18T21:53:20.084Z,21.56
2022-08-18T21:55:51.755Z,21.43
2022-08-18T21:58:33.660Z,21.35
2022-08-18T22:01:09.976Z,21.50
2022-08-18T22:03:56.232Z,21.56
2022-08-18T22:06:40.202Z,21.47
2022-08-18T22:09:28.264Z,21.44
2022-08-18T22:12:47.292Z,21.48
2022-08-18T22:15:21.068Z,21.50
2022-08-18T22:17:59.813Z,21.49
2022-08-18T22:20:38.458Z,21.39
2022-08-18T22:23:32.625Z,21.36
2022-08-18T22:26:16.603Z,21.47
2022-08-18T22:28:50.113Z,21.48
2022-08-18T22:31:20.902Z,21.37
2022-08-18T22:33:47.776Z,21.50
2022-08-18T22:36:17.373Z,21.52
2022-08-18T22:38:44.666Z,21.60
2022-08-18T22:41:11.428Z,21.51
2022-08-18T22:43:37.907Z,21.52
2022-08-18T22:46:04.351Z,21.68
2022-08-18T22:48:30.899Z,21.57
2022-08-18T22:50:57.384Z,21.58
2022-08-18T22:53:23.916Z,21.75
2022-08-18T22:55:51.824Z,21.78
2022-08-18T22:58:22.122Z,21.87
2022-08-18T23:01:00.985Z,21.83
2022-08-18T23:03:32.010Z,21.85
2022-08-18T23:06:04.261Z,21.87
2022-08-18T23:08:37.833Z,21.83
2022-08-18T23:11:17.101Z,21.83
2022-08-18T23:13:43.567Z,21.85
2022-08-18T23:16:30.921Z,21.67
2022-08-18T23:18:56.448Z,21.69
2022-08-18T23:21:34.221Z,21.77
2022-08-18T23:24:01.582Z,21.80
2022-08-18T23:26:29.592Z,21.84
2022-08-18T23:28:57.170Z,21.76
2022-08-18T23:31:23.664Z,21.77
2022-08-18T23:33:50.114Z,21.85
2022-08-18T23:36:17.754Z,21.92
2022-08-18T23:38:44.666Z,21.93
2022-08-18T23:41:13.150Z,21.85
2022-08-18T23:43:39.911Z,21.93
2022-08-18T23:46:18.647Z,21.74
2022-08-18T23:48:49.719Z,21.68
2022-08-18T23:51:29.195Z,21.68
2022-08-18T23:54:00.371Z,21.81
2022-08-18T23:56:31.350Z,21.75
2022-08-18T23:58:58.124Z,21.70
